sensor_id;sensor_type;location;lat;lon;timestamp;pressure;altitude;pressure_sealevel;temperature;humidity
75208;BME280;63795;55.684;37.864;2022-11-03T00:01:10;99781.69;;;-0.30;71.24
75208;BME280;63795;55.684;37.864;2022-11-03T00:06:11;99790.53;;;-0.28;71.90
75208;BME280;63795;55.684;37.864;2022-11-03T00:11:13;99777.66;;;-0.41;71.87
75208;BME280;63795;55.684;37.864;2022-11-03T00:16:14;99798.97;;;-0.45;72.00
75208;BME280;63795;55.684;37.864;2022-11-03T00:21:14;99800.44;;;-0.48;72.04
75208;BME280;63795;55.684;37.864;2022-11-03T00:31:25;99788.63;;;-0.36;71.83
75208;BME280;63795;55.684;37.864;2022-11-03T00:36:31;99798.63;;;-0.15;71.75
75208;BME280;63795;55.684;37.864;2022-11-03T00:41:32;99803.75;;;-0.25;71.72
75208;BME280;63795;55.684;37.864;2022-11-03T00:46:33;99814.28;;;-0.31;71.90
75208;BME280;63795;55.684;37.864;2022-11-03T00:51:34;99820.41;;;-0.46;72.24
75208;BME280;63795;55.684;37.864;2022-11-03T00:56:37;99818.44;;;-0.45;72.07
75208;BME280;63795;55.684;37.864;2022-11-03T01:01:43;99827.50;;;-0.48;72.12
75208;BME280;63795;55.684;37.864;2022-11-03T01:06:46;99816.94;;;-0.34;71.87
75208;BME280;63795;55.684;37.864;2022-11-03T01:11:59;99815.00;;;-0.42;72.56
75208;BME280;63795;55.684;37.864;2022-11-03T01:17:03;99814.72;;;-0.49;72.66
75208;BME280;63795;55.684;37.864;2022-11-03T01:22:04;99816.63;;;-0.41;72.19
75208;BME280;63795;55.684;37.864;2022-11-03T01:27:04;99829.22;;;-0.35;72.13
75208;BME280;63795;55.684;37.864;2022-11-03T01:32:05;99817.41;;;-0.32;72.03
75208;BME280;63795;55.684;37.864;2022-11-03T01:37:07;99828.06;;;-0.34;71.88
75208;BME280;63795;55.684;37.864;2022-11-03T01:42:11;99828.09;;;-0.43;72.04
75208;BME280;63795;55.684;37.864;2022-11-03T01:47:27;99796.28;;;-0.62;72.58
75208;BME280;63795;55.684;37.864;2022-11-03T01:57:46;99812.28;;;-0.59;72.42
75208;BME280;63795;55.684;37.864;2022-11-03T02:02:49;99823.16;;;-0.75;72.62
75208;BME280;63795;55.684;37.864;2022-11-03T02:07:57;99825.94;;;-0.75;72.37
75208;BME280;63795;55.684;37.864;2022-11-03T02:12:59;99829.44;;;-0.87;72.66
75208;BME280;63795;55.684;37.864;2022-11-03T02:18:01;99825.69;;;-0.91;73.15
75208;BME280;63795;55.684;37.864;2022-11-03T02:28:29;99826.91;;;-0.62;72.51
75208;BME280;63795;55.684;37.864;2022-11-03T02:38:45;99814.91;;;-0.54;72.20
75208;BME280;63795;55.684;37.864;2022-11-03T02:43:47;99817.84;;;-0.51;72.21
75208;BME280;63795;55.684;37.864;2022-11-03T02:48:48;99817.25;;;-0.65;72.54
75208;BME280;63795;55.684;37.864;2022-11-03T02:54:18;99822.28;;;-0.58;72.29
75208;BME280;63795;55.684;37.864;2022-11-03T02:59:25;99818.72;;;-0.67;72.32
75208;BME280;63795;55.684;37.864;2022-11-03T03:04:41;99798.94;;;-0.74;72.23
75208;BME280;63795;55.684;37.864;2022-11-03T03:09:46;99809.06;;;-0.70;72.50
75208;BME280;63795;55.684;37.864;2022-11-03T03:14:49;99812.50;;;-0.64;72.38
75208;BME280;63795;55.684;37.864;2022-11-03T03:20:05;99821.00;;;-0.69;72.42
75208;BME280;63795;55.684;37.864;2022-11-03T03:25:19;99817.47;;;-0.78;72.64
75208;BME280;63795;55.684;37.864;2022-11-03T03:30:21;99827.06;;;-0.67;72.73
75208;BME280;63795;55.684;37.864;2022-11-03T03:35:24;99825.50;;;-0.86;73.05
75208;BME280;63795;55.684;37.864;2022-11-03T03:40:31;99820.25;;;-0.78;72.81
75208;BME280;63795;55.684;37.864;2022-11-03T03:45:33;99832.16;;;-0.69;72.86
75208;BME280;63795;55.684;37.864;2022-11-03T03:50:36;99835.72;;;-0.60;72.62
75208;BME280;63795;55.684;37.864;2022-11-03T03:55:42;99832.47;;;-0.62;72.46
75208;BME280;63795;55.684;37.864;2022-11-03T04:00:44;99835.56;;;-0.64;72.53
75208;BME280;63795;55.684;37.864;2022-11-03T04:05:46;99828.03;;;-0.63;72.20
75208;BME280;63795;55.684;37.864;2022-11-03T04:10:47;99827.88;;;-0.67;72.43
75208;BME280;63795;55.684;37.864;2022-11-03T04:16:08;99824.97;;;-0.70;72.19
75208;BME280;63795;55.684;37.864;2022-11-03T04:21:27;99839.03;;;-0.75;72.76
75208;BME280;63795;55.684;37.864;2022-11-03T04:26:46;99839.53;;;-0.73;72.71
75208;BME280;63795;55.684;37.864;2022-11-03T04:31:46;99842.31;;;-0.73;72.69
75208;BME280;63795;55.684;37.864;2022-11-03T04:36:47;99835.13;;;-0.74;72.83
75208;BME280;63795;55.684;37.864;2022-11-03T04:41:47;99839.53;;;-0.73;72.66
75208;BME280;63795;55.684;37.864;2022-11-03T04:46:48;99846.63;;;-0.84;72.96
75208;BME280;63795;55.684;37.864;2022-11-03T04:51:49;99851.34;;;-0.76;73.01
75208;BME280;63795;55.684;37.864;2022-11-03T04:56:49;99853.16;;;-0.80;72.97
75208;BME280;63795;55.684;37.864;2022-11-03T05:01:50;99864.28;;;-0.80;73.10
75208;BME280;63795;55.684;37.864;2022-11-03T05:06:52;99832.22;;;-0.95;73.31
75208;BME280;63795;55.684;37.864;2022-11-03T05:11:55;99809.03;;;-1.08;72.97
75208;BME280;63795;55.684;37.864;2022-11-03T05:16:56;99826.41;;;-1.11;73.48
75208;BME280;63795;55.684;37.864;2022-11-03T05:21:59;99864.78;;;-0.96;73.43
75208;BME280;63795;55.684;37.864;2022-11-03T05:27:00;99848.72;;;-0.81;73.06
75208;BME280;63795;55.684;37.864;2022-11-03T05:32:01;99852.25;;;-0.64;72.91
75208;BME280;63795;55.684;37.864;2022-11-03T05:42:39;99839.19;;;-0.72;72.67
75208;BME280;63795;55.684;37.864;2022-11-03T05:47:41;99857.69;;;-0.67;72.78
75208;BME280;63795;55.684;37.864;2022-11-03T05:52:43;99873.19;;;-0.58;72.77
75208;BME280;63795;55.684;37.864;2022-11-03T05:57:44;99866.88;;;-0.75;72.90
75208;BME280;63795;55.684;37.864;2022-11-03T06:02:46;99868.03;;;-0.76;73.05
75208;BME280;63795;55.684;37.864;2022-11-03T06:07:50;99876.06;;;-0.83;73.15
75208;BME280;63795;55.684;37.864;2022-11-03T06:12:53;99875.41;;;-0.80;73.14
75208;BME280;63795;55.684;37.864;2022-11-03T06:17:56;99873.72;;;-0.64;73.04
75208;BME280;63795;55.684;37.864;2022-11-03T06:22:56;99886.44;;;-0.46;72.61
75208;BME280;63795;55.684;37.864;2022-11-03T06:28:04;99875.69;;;-0.65;72.64
75208;BME280;63795;55.684;37.864;2022-11-03T06:33:18;99873.03;;;-0.61;72.54
75208;BME280;63795;55.684;37.864;2022-11-03T06:38:23;99883.16;;;-0.48;72.62
75208;BME280;63795;55.684;37.864;2022-11-03T06:43:25;99878.72;;;-0.41;72.11
75208;BME280;63795;55.684;37.864;2022-11-03T06:48:28;99880.03;;;-0.47;72.04
75208;BME280;63795;55.684;37.864;2022-11-03T06:53:31;99850.91;;;-0.49;71.82
75208;BME280;63795;55.684;37.864;2022-11-03T06:58:36;99875.41;;;-0.34;71.98
75208;BME280;63795;55.684;37.864;2022-11-03T07:03:36;99883.53;;;-0.21;71.73
75208;BME280;63795;55.684;37.864;2022-11-03T07:08:49;99890.69;;;-0.11;71.37
75208;BME280;63795;55.684;37.864;2022-11-03T07:13:53;99889.81;;;-0.03;71.39
75208;BME280;63795;55.684;37.864;2022-11-03T07:18:56;99876.38;;;-0.01;71.08
75208;BME280;63795;55.684;37.864;2022-11-03T07:23:59;99896.16;;;0.06;70.99
75208;BME280;63795;55.684;37.864;2022-11-03T07:29:00;99882.63;;;-0.04;71.10
75208;BME280;63795;55.684;37.864;2022-11-03T07:34:01;99892.00;;;-0.09;71.42
75208;BME280;63795;55.684;37.864;2022-11-03T07:39:02;99890.75;;;0.10;70.90
75208;BME280;63795;55.684;37.864;2022-11-03T07:44:02;99882.31;;;0.18;70.72
75208;BME280;63795;55.684;37.864;2022-11-03T07:49:13;99888.72;;;0.19;70.52
75208;BME280;63795;55.684;37.864;2022-11-03T07:54:21;99897.06;;;0.19;70.56
75208;BME280;63795;55.684;37.864;2022-11-03T07:59:34;99895.78;;;0.16;70.38
75208;BME280;63795;55.684;37.864;2022-11-03T08:04:36;99891.28;;;0.03;70.16
75208;BME280;63795;55.684;37.864;2022-11-03T08:09:37;99892.66;;;-0.12;70.60
75208;BME280;63795;55.684;37.864;2022-11-03T08:14:37;99896.97;;;0.07;70.27
75208;BME280;63795;55.684;37.864;2022-11-03T08:19:49;99893.19;;;0.11;70.27
75208;BME280;63795;55.684;37.864;2022-11-03T08:24:51;99884.22;;;0.06;70.38
75208;BME280;63795;55.684;37.864;2022-11-03T08:29:51;99887.19;;;0.30;69.93
75208;BME280;63795;55.684;37.864;2022-11-03T08:34:52;99891.03;;;0.17;69.65
75208;BME280;63795;55.684;37.864;2022-11-03T08:39:53;99886.03;;;0.02;70.22
75208;BME280;63795;55.684;37.864;2022-11-03T08:44:53;99887.53;;;-0.01;70.19
75208;BME280;63795;55.684;37.864;2022-11-03T08:49:54;99889.41;;;0.16;70.28
75208;BME280;63795;55.684;37.864;2022-11-03T08:54:54;99884.81;;;0.11;69.94
75208;BME280;63795;55.684;37.864;2022-11-03T08:59:55;99884.09;;;0.23;69.92
75208;BME280;63795;55.684;37.864;2022-11-03T09:04:56;99891.78;;;0.46;69.52
75208;BME280;63795;55.684;37.864;2022-11-03T09:09:56;99881.00;;;0.65;69.14
75208;BME280;63795;55.684;37.864;2022-11-03T09:14:57;99882.19;;;0.76;69.02
75208;BME280;63795;55.684;37.864;2022-11-03T09:19:57;99872.63;;;0.65;68.96
75208;BME280;63795;55.684;37.864;2022-11-03T09:24:58;99872.50;;;0.41;69.18
75208;BME280;63795;55.684;37.864;2022-11-03T09:29:59;99879.84;;;0.46;69.59
75208;BME280;63795;55.684;37.864;2022-11-03T09:34:59;99872.34;;;0.58;69.13
75208;BME280;63795;55.684;37.864;2022-11-03T09:40:00;99874.88;;;0.72;68.97
75208;BME280;63795;55.684;37.864;2022-11-03T09:45:01;99868.13;;;0.73;68.87
75208;BME280;63795;55.684;37.864;2022-11-03T09:50:02;99877.94;;;0.58;68.64
75208;BME280;63795;55.684;37.864;2022-11-03T09:55:12;99876.56;;;0.64;68.63
75208;BME280;63795;55.684;37.864;2022-11-03T10:00:19;99870.97;;;0.64;68.55
75208;BME280;63795;55.684;37.864;2022-11-03T10:05:24;99876.72;;;0.68;68.44
75208;BME280;63795;55.684;37.864;2022-11-03T10:10:26;99873.09;;;0.47;68.18
75208;BME280;63795;55.684;37.864;2022-11-03T10:15:27;99873.63;;;0.40;68.73
75208;BME280;63795;55.684;37.864;2022-11-03T10:20:28;99873.22;;;0.50;68.47
75208;BME280;63795;55.684;37.864;2022-11-03T10:25:38;99876.31;;;0.57;68.55
75208;BME280;63795;55.684;37.864;2022-11-03T10:35:49;99874.06;;;0.51;68.57
75208;BME280;63795;55.684;37.864;2022-11-03T10:40:49;99878.22;;;0.65;68.12
75208;BME280;63795;55.684;37.864;2022-11-03T10:46:18;99870.19;;;0.64;68.23
75208;BME280;63795;55.684;37.864;2022-11-03T10:51:19;99865.81;;;0.75;68.17
75208;BME280;63795;55.684;37.864;2022-11-03T10:56:20;99865.00;;;0.74;68.43
75208;BME280;63795;55.684;37.864;2022-11-03T11:01:21;99861.41;;;0.53;68.43
75208;BME280;63795;55.684;37.864;2022-11-03T11:06:26;99867.34;;;0.52;68.75
75208;BME280;63795;55.684;37.864;2022-11-03T11:11:28;99874.66;;;0.77;68.22
75208;BME280;63795;55.684;37.864;2022-11-03T11:26:53;99877.66;;;0.51;68.94
75208;BME280;63795;55.684;37.864;2022-11-03T11:31:55;99868.59;;;0.54;68.87
75208;BME280;63795;55.684;37.864;2022-11-03T11:53:01;99878.47;;;0.72;68.61
75208;BME280;63795;55.684;37.864;2022-11-03T11:58:03;99877.25;;;0.61;68.82
75208;BME280;63795;55.684;37.864;2022-11-03T12:03:05;99869.50;;;0.46;69.55
75208;BME280;63795;55.684;37.864;2022-11-03T12:08:19;99878.59;;;0.35;69.53
75208;BME280;63795;55.684;37.864;2022-11-03T12:13:41;99877.50;;;0.27;69.42
75208;BME280;63795;55.684;37.864;2022-11-03T12:18:46;99874.69;;;0.36;69.64
75208;BME280;63795;55.684;37.864;2022-11-03T12:23:47;99884.00;;;0.40;69.42
75208;BME280;63795;55.684;37.864;2022-11-03T12:28:47;99876.16;;;0.33;69.62
75208;BME280;63795;55.684;37.864;2022-11-03T12:33:48;99868.94;;;0.32;69.67
75208;BME280;63795;55.684;37.864;2022-11-03T12:38:48;99874.13;;;0.22;69.65
75208;BME280;63795;55.684;37.864;2022-11-03T12:43:51;99879.13;;;0.28;69.81
75208;BME280;63795;55.684;37.864;2022-11-03T12:48:52;99879.28;;;0.32;69.75
75208;BME280;63795;55.684;37.864;2022-11-03T12:53:52;99876.44;;;0.20;69.63
75208;BME280;63795;55.684;37.864;2022-11-03T12:58:53;99878.91;;;0.13;69.98
75208;BME280;63795;55.684;37.864;2022-11-03T13:03:53;99872.47;;;0.21;69.75
75208;BME280;63795;55.684;37.864;2022-11-03T13:08:54;99850.22;;;0.12;69.51
75208;BME280;63795;55.684;37.864;2022-11-03T13:13:55;99881.53;;;0.38;69.65
75208;BME280;63795;55.684;37.864;2022-11-03T13:18:56;99885.44;;;0.46;69.60
75208;BME280;63795;55.684;37.864;2022-11-03T13:23:57;99883.34;;;0.34;69.92
75208;BME280;63795;55.684;37.864;2022-11-03T13:28:57;99890.97;;;0.25;70.05
75208;BME280;63795;55.684;37.864;2022-11-03T13:33:58;99884.72;;;0.28;69.84
75208;BME280;63795;55.684;37.864;2022-11-03T13:38:58;99878.66;;;0.26;69.73
75208;BME280;63795;55.684;37.864;2022-11-03T13:43:59;99888.19;;;0.25;70.07
75208;BME280;63795;55.684;37.864;2022-11-03T13:48:59;99891.09;;;0.29;70.01
75208;BME280;63795;55.684;37.864;2022-11-03T13:54:00;99906.03;;;0.24;70.08
75208;BME280;63795;55.684;37.864;2022-11-03T13:59:00;99900.25;;;0.38;69.98
75208;BME280;63795;55.684;37.864;2022-11-03T14:04:01;99900.47;;;0.24;70.39
75208;BME280;63795;55.684;37.864;2022-11-03T14:09:02;99892.81;;;0.21;70.18
75208;BME280;63795;55.684;37.864;2022-11-03T14:14:02;99896.53;;;0.25;70.21
75208;BME280;63795;55.684;37.864;2022-11-03T14:19:03;99891.88;;;0.38;69.96
75208;BME280;63795;55.684;37.864;2022-11-03T14:24:04;99895.47;;;0.38;69.81
75208;BME280;63795;55.684;37.864;2022-11-03T14:29:05;99905.00;;;0.37;69.89
75208;BME280;63795;55.684;37.864;2022-11-03T14:34:05;99901.59;;;0.32;69.82
75208;BME280;63795;55.684;37.864;2022-11-03T14:39:06;99905.34;;;0.36;70.12
75208;BME280;63795;55.684;37.864;2022-11-03T14:44:06;99901.03;;;0.38;70.03
75208;BME280;63795;55.684;37.864;2022-11-03T14:49:07;99906.63;;;0.38;69.93
75208;BME280;63795;55.684;37.864;2022-11-03T14:54:08;99908.13;;;0.36;69.96
75208;BME280;63795;55.684;37.864;2022-11-03T14:59:08;99899.59;;;0.32;70.10
75208;BME280;63795;55.684;37.864;2022-11-03T15:04:09;99906.03;;;0.24;70.28
75208;BME280;63795;55.684;37.864;2022-11-03T15:09:11;99911.97;;;0.23;70.17
75208;BME280;63795;55.684;37.864;2022-11-03T15:14:13;99902.16;;;0.17;70.50
75208;BME280;63795;55.684;37.864;2022-11-03T15:19:14;99908.03;;;0.24;70.45
75208;BME280;63795;55.684;37.864;2022-11-03T15:24:14;99911.72;;;0.07;70.49
75208;BME280;63795;55.684;37.864;2022-11-03T15:29:15;99910.56;;;0.08;70.59
75208;BME280;63795;55.684;37.864;2022-11-03T15:34:16;99906.91;;;0.16;70.59
75208;BME280;63795;55.684;37.864;2022-11-03T15:39:16;99911.34;;;0.17;70.32
75208;BME280;63795;55.684;37.864;2022-11-03T15:44:17;99908.75;;;0.12;70.56
75208;BME280;63795;55.684;37.864;2022-11-03T15:49:17;99924.19;;;0.10;70.82
75208;BME280;63795;55.684;37.864;2022-11-03T15:54:18;99915.97;;;0.13;70.84
75208;BME280;63795;55.684;37.864;2022-11-03T15:59:21;99918.53;;;0.18;70.90
75208;BME280;63795;55.684;37.864;2022-11-03T16:04:22;99927.38;;;0.20;70.82
75208;BME280;63795;55.684;37.864;2022-11-03T16:09:23;99916.22;;;0.20;70.36
75208;BME280;63795;55.684;37.864;2022-11-03T16:14:24;99917.19;;;0.24;70.74
75208;BME280;63795;55.684;37.864;2022-11-03T16:19:24;99913.06;;;0.30;70.53
75208;BME280;63795;55.684;37.864;2022-11-03T16:24:25;99923.56;;;0.33;70.55
75208;BME280;63795;55.684;37.864;2022-11-03T16:29:25;99901.16;;;0.21;70.66
75208;BME280;63795;55.684;37.864;2022-11-03T16:34:26;99913.94;;;0.22;70.86
75208;BME280;63795;55.684;37.864;2022-11-03T16:39:27;99913.06;;;0.30;70.93
75208;BME280;63795;55.684;37.864;2022-11-03T16:44:29;99920.41;;;0.35;70.76
75208;BME280;63795;55.684;37.864;2022-11-03T16:49:29;99917.44;;;0.40;70.70
75208;BME280;63795;55.684;37.864;2022-11-03T16:54:30;99916.81;;;0.34;70.77
75208;BME280;63795;55.684;37.864;2022-11-03T16:59:30;99902.66;;;0.19;70.85
75208;BME280;63795;55.684;37.864;2022-11-03T17:04:31;99915.38;;;0.28;70.81
75208;BME280;63795;55.684;37.864;2022-11-03T17:09:32;99927.06;;;0.22;71.10
75208;BME280;63795;55.684;37.864;2022-11-03T17:14:32;99914.63;;;0.19;71.00
75208;BME280;63795;55.684;37.864;2022-11-03T17:19:33;99916.72;;;0.22;71.03
75208;BME280;63795;55.684;37.864;2022-11-03T17:24:33;99915.44;;;0.20;70.91
75208;BME280;63795;55.684;37.864;2022-11-03T17:29:43;99914.75;;;0.23;70.95
75208;BME280;63795;55.684;37.864;2022-11-03T17:34:47;99911.81;;;0.19;71.17
75208;BME280;63795;55.684;37.864;2022-11-03T17:39:48;99903.13;;;0.21;71.06
75208;BME280;63795;55.684;37.864;2022-11-03T17:44:50;99907.75;;;0.17;70.99
75208;BME280;63795;55.684;37.864;2022-11-03T17:49:51;99910.88;;;0.15;71.33
75208;BME280;63795;55.684;37.864;2022-11-03T17:54:52;99908.09;;;0.15;71.14
75208;BME280;63795;55.684;37.864;2022-11-03T17:59:56;99911.34;;;0.17;71.01
75208;BME280;63795;55.684;37.864;2022-11-03T18:05:16;99911.22;;;0.14;71.26
75208;BME280;63795;55.684;37.864;2022-11-03T18:10:18;99917.41;;;0.19;71.15
75208;BME280;63795;55.684;37.864;2022-11-03T18:15:21;99918.53;;;0.18;71.20
75208;BME280;63795;55.684;37.864;2022-11-03T18:20:27;99916.69;;;0.02;71.56
75208;BME280;63795;55.684;37.864;2022-11-03T18:25:28;99916.44;;;-0.14;71.86
75208;BME280;63795;55.684;37.864;2022-11-03T18:30:29;99914.16;;;-0.21;72.02
75208;BME280;63795;55.684;37.864;2022-11-03T18:35:31;99920.34;;;-0.07;72.06
75208;BME280;63795;55.684;37.864;2022-11-03T18:40:34;99914.03;;;0.05;71.59
75208;BME280;63795;55.684;37.864;2022-11-03T18:45:35;99899.84;;;-0.02;71.80
75208;BME280;63795;55.684;37.864;2022-11-03T18:50:36;99899.03;;;-0.11;72.15
75208;BME280;63795;55.684;37.864;2022-11-03T18:55:36;99906.69;;;0.00;72.05
75208;BME280;63795;55.684;37.864;2022-11-03T19:00:37;99906.63;;;-0.20;72.49
75208;BME280;63795;55.684;37.864;2022-11-03T19:05:37;99904.00;;;-0.17;72.31
75208;BME280;63795;55.684;37.864;2022-11-03T19:10:38;99896.09;;;-0.06;72.00
75208;BME280;63795;55.684;37.864;2022-11-03T19:15:39;99905.63;;;0.14;71.93
75208;BME280;63795;55.684;37.864;2022-11-03T19:20:39;99901.56;;;0.11;71.98
75208;BME280;63795;55.684;37.864;2022-11-03T19:25:42;99892.72;;;0.09;71.65
75208;BME280;63795;55.684;37.864;2022-11-03T19:30:43;99893.38;;;0.06;71.79
75208;BME280;63795;55.684;37.864;2022-11-03T19:35:44;99894.44;;;-0.07;72.02
75208;BME280;63795;55.684;37.864;2022-11-03T19:40:46;99885.75;;;-0.06;72.09
75208;BME280;63795;55.684;37.864;2022-11-03T19:46:05;99899.50;;;-0.01;71.89
75208;BME280;63795;55.684;37.864;2022-11-03T19:51:18;99883.53;;;-0.21;72.09
75208;BME280;63795;55.684;37.864;2022-11-03T19:56:24;99897.75;;;-0.14;72.10
75208;BME280;63795;55.684;37.864;2022-11-03T20:01:24;99893.31;;;-0.06;71.94
75208;BME280;63795;55.684;37.864;2022-11-03T20:06:25;99889.06;;;-0.12;72.21
75208;BME280;63795;55.684;37.864;2022-11-03T20:11:28;99889.34;;;-0.05;72.10
75208;BME280;63795;55.684;37.864;2022-11-03T20:16:29;99897.44;;;-0.12;72.17
75208;BME280;63795;55.684;37.864;2022-11-03T20:21:30;99907.72;;;-0.04;72.06
75208;BME280;63795;55.684;37.864;2022-11-03T20:26:32;99901.50;;;-0.10;71.91
75208;BME280;63795;55.684;37.864;2022-11-03T20:31:33;99892.84;;;-0.17;72.34
75208;BME280;63795;55.684;37.864;2022-11-03T20:36:34;99887.78;;;-0.23;72.49
75208;BME280;63795;55.684;37.864;2022-11-03T20:41:34;99891.69;;;-0.16;72.37
75208;BME280;63795;55.684;37.864;2022-11-03T20:46:35;99883.19;;;-0.19;72.21
75208;BME280;63795;55.684;37.864;2022-11-03T20:51:44;99879.75;;;-0.16;72.16
75208;BME280;63795;55.684;37.864;2022-11-03T20:56:45;99896.78;;;-0.18;72.55
75208;BME280;63795;55.684;37.864;2022-11-03T21:01:46;99893.13;;;-0.10;72.16
75208;BME280;63795;55.684;37.864;2022-11-03T21:06:47;99891.16;;;-0.09;72.19
75208;BME280;63795;55.684;37.864;2022-11-03T21:11:50;99892.47;;;-0.07;72.08
75208;BME280;63795;55.684;37.864;2022-11-03T21:16:51;99891.16;;;-0.09;72.21
75208;BME280;63795;55.684;37.864;2022-11-03T21:22:17;99888.75;;;-0.19;72.44
75208;BME280;63795;55.684;37.864;2022-11-03T21:27:18;99877.28;;;-0.18;72.30
75208;BME280;63795;55.684;37.864;2022-11-03T21:32:19;99887.75;;;-0.15;72.24
75208;BME280;63795;55.684;37.864;2022-11-03T21:37:21;99873.63;;;-0.10;72.27
75208;BME280;63795;55.684;37.864;2022-11-03T21:42:21;99874.59;;;-0.06;72.18
75208;BME280;63795;55.684;37.864;2022-11-03T21:47:40;99883.78;;;-0.05;72.37
75208;BME280;63795;55.684;37.864;2022-11-03T21:53:01;99876.97;;;-0.16;72.50
75208;BME280;63795;55.684;37.864;2022-11-03T21:58:02;99882.91;;;-0.26;72.60
75208;BME280;63795;55.684;37.864;2022-11-03T22:03:03;99865.91;;;-0.42;73.17
75208;BME280;63795;55.684;37.864;2022-11-03T22:08:06;99871.84;;;-0.43;73.70
75208;BME280;63795;55.684;37.864;2022-11-03T22:13:07;99878.19;;;-0.34;73.45
75208;BME280;63795;55.684;37.864;2022-11-03T22:18:07;99876.47;;;-0.18;73.29
75208;BME280;63795;55.684;37.864;2022-11-03T22:23:08;99870.72;;;-0.13;73.05
75208;BME280;63795;55.684;37.864;2022-11-03T22:28:27;99870.66;;;-0.05;72.95
75208;BME280;63795;55.684;37.864;2022-11-03T22:33:28;99858.22;;;-0.07;73.01
75208;BME280;63795;55.684;37.864;2022-11-03T22:38:28;99862.66;;;-0.06;73.07
75208;BME280;63795;55.684;37.864;2022-11-03T22:43:47;99861.22;;;-0.12;73.21
75208;BME280;63795;55.684;37.864;2022-11-03T22:49:07;99873.63;;;-0.10;73.46
75208;BME280;63795;55.684;37.864;2022-11-03T22:54:07;99874.81;;;-0.11;73.26
75208;BME280;63795;55.684;37.864;2022-11-03T22:59:10;99868.41;;;-0.11;73.43
75208;BME280;63795;55.684;37.864;2022-11-03T23:04:12;99868.88;;;-0.09;73.42
75208;BME280;63795;55.684;37.864;2022-11-03T23:09:12;99880.84;;;-0.09;73.50
75208;BME280;63795;55.684;37.864;2022-11-03T23:14:13;99878.34;;;-0.02;73.56
75208;BME280;63795;55.684;37.864;2022-11-03T23:19:14;99875.19;;;-0.21;73.68
75208;BME280;63795;55.684;37.864;2022-11-03T23:24:33;99881.09;;;-0.22;74.38
75208;BME280;63795;55.684;37.864;2022-11-03T23:29:52;99882.44;;;-0.28;74.46
75208;BME280;63795;55.684;37.864;2022-11-03T23:34:52;99864.09;;;-0.38;75.01
75208;BME280;63795;55.684;37.864;2022-11-03T23:39:53;99876.09;;;-0.46;75.67
75208;BME280;63795;55.684;37.864;2022-11-03T23:44:53;99871.38;;;-0.54;75.85
75208;BME280;63795;55.684;37.864;2022-11-03T23:50:12;99884.66;;;-0.59;76.74
75208;BME280;63795;55.684;37.864;2022-11-03T23:55:13;99883.53;;;-0.58;76.85
